createdAt,value
2017-07-25T00:00:24.421Z,14.37
2017-07-25T00:02:51.861Z,14.12
2017-07-25T00:05:19.342Z,14.19
2017-07-25T00:07:46.786Z,14.12
2017-07-25T00:10:14.225Z,14.10
2017-07-25T00:12:41.692Z,14.13
2017-07-25T00:15:09.156Z,14.07
2017-07-25T00:17:36.684Z,14.13
2017-07-25T00:20:04.145Z,14.22
2017-07-25T00:22:31.616Z,14.17
2017-07-25T00:24:59.211Z,14.31
2017-07-25T00:27:27.224Z,14.36
2017-07-25T00:29:54.710Z,14.24
2017-07-25T00:32:22.162Z,14.33
2017-07-25T00:34:49.633Z,14.33
2017-07-25T00:37:17.081Z,14.38
2017-07-25T00:39:44.549Z,14.39
2017-07-25T00:42:11.997Z,14.35
2017-07-25T00:44:39.486Z,14.36
2017-07-25T00:47:06.933Z,14.32
2017-07-25T00:49:34.388Z,14.42
2017-07-25T00:54:38.536Z,14.35
2017-07-25T00:57:05.974Z,14.29
2017-07-25T00:59:33.417Z,14.15
2017-07-25T01:02:00.897Z,14.21
2017-07-25T01:04:28.352Z,14.20
2017-07-25T01:06:55.804Z,14.17
2017-07-25T01:09:23.269Z,14.18
2017-07-25T01:11:50.746Z,14.11
2017-07-25T01:14:18.185Z,14.04
2017-07-25T01:16:45.631Z,14.00
2017-07-25T01:19:13.117Z,13.96
2017-07-25T01:21:40.567Z,13.95
2017-07-25T01:24:08.014Z,14.04
2017-07-25T01:26:35.486Z,14.11
2017-07-25T01:29:02.935Z,14.09
2017-07-25T01:31:30.405Z,14.05
2017-07-25T01:33:57.866Z,14.07
2017-07-25T01:36:30.246Z,13.95
2017-07-25T01:38:57.725Z,13.94
2017-07-25T01:41:25.190Z,14.00
2017-07-25T01:43:52.633Z,13.97
2017-07-25T01:46:20.104Z,14.06
2017-07-25T01:48:47.594Z,14.09
2017-07-25T01:51:15.036Z,14.06
2017-07-25T01:53:42.522Z,14.06
2017-07-25T01:56:09.978Z,13.96
2017-07-25T01:58:37.428Z,13.93
2017-07-25T02:01:04.909Z,13.81
2017-07-25T02:03:32.355Z,13.77
2017-07-25T02:05:59.808Z,13.76
2017-07-25T02:08:27.273Z,13.74
2017-07-25T02:10:54.720Z,13.62
2017-07-25T02:13:22.193Z,13.61
2017-07-25T02:15:49.628Z,13.84
2017-07-25T02:18:17.112Z,13.87
2017-07-25T02:20:44.556Z,13.95
2017-07-25T02:23:12.006Z,13.85
2017-07-25T02:25:39.492Z,13.82
2017-07-25T02:28:06.939Z,13.97
2017-07-25T02:30:34.397Z,13.87
2017-07-25T02:33:01.878Z,13.94
2017-07-25T02:35:29.328Z,13.86
2017-07-25T02:37:56.793Z,13.86
2017-07-25T02:40:24.253Z,13.84
2017-07-25T02:42:51.717Z,13.79
2017-07-25T02:45:19.191Z,13.73
2017-07-25T02:47:46.645Z,13.65
2017-07-25T02:50:14.096Z,13.66
2017-07-25T02:52:41.560Z,13.60
2017-07-25T02:55:09.014Z,13.58
2017-07-25T02:57:36.506Z,13.79
2017-07-25T03:00:03.970Z,13.88
2017-07-25T03:02:31.420Z,13.94
2017-07-25T03:04:58.893Z,13.84
2017-07-25T03:07:26.357Z,13.96
2017-07-25T03:09:53.805Z,13.81
2017-07-25T03:12:21.258Z,13.78
2017-07-25T03:14:48.713Z,13.74
2017-07-25T03:17:16.180Z,13.74
2017-07-25T03:19:43.654Z,13.78
2017-07-25T03:22:11.100Z,13.69
2017-07-25T03:24:38.542Z,13.87
2017-07-25T03:27:06.017Z,13.81
2017-07-25T03:29:33.488Z,13.99
2017-07-25T03:32:00.936Z,13.84
2017-07-25T03:34:28.539Z,13.79
2017-07-25T03:36:55.993Z,14.46
2017-07-25T03:39:23.438Z,14.07
2017-07-25T03:41:51.323Z,14.67
2017-07-25T03:44:18.773Z,14.82
2017-07-25T03:46:46.225Z,15.22
2017-07-25T03:49:13.696Z,14.82
2017-07-25T03:51:41.168Z,14.48
2017-07-25T03:54:08.610Z,14.15
2017-07-25T03:56:36.086Z,14.07
2017-07-25T03:59:03.556Z,14.15
2017-07-25T04:01:31.867Z,14.09
2017-07-25T04:03:59.344Z,14.04
2017-07-25T04:06:26.789Z,14.00
2017-07-25T04:08:54.252Z,14.04
2017-07-25T04:11:21.718Z,13.97
2017-07-25T04:13:49.178Z,14.01
2017-07-25T04:16:16.653Z,14.17
2017-07-25T04:18:44.101Z,14.16
2017-07-25T04:21:11.693Z,14.09
2017-07-25T04:23:39.140Z,14.28
2017-07-25T04:26:06.584Z,14.28
2017-07-25T04:28:34.053Z,14.49
2017-07-25T04:31:01.497Z,14.27
2017-07-25T04:33:29.217Z,14.38
2017-07-25T04:35:56.925Z,14.42
2017-07-25T04:38:24.810Z,14.36
2017-07-25T04:40:52.269Z,14.30
2017-07-25T04:43:19.921Z,14.33
2017-07-25T04:45:47.376Z,14.49
2017-07-25T04:48:14.830Z,14.29
2017-07-25T04:50:42.296Z,14.37
2017-07-25T04:53:09.758Z,14.42
2017-07-25T04:55:37.221Z,14.42
2017-07-25T04:58:04.667Z,14.71
2017-07-25T05:00:32.138Z,14.87
2017-07-25T05:02:59.623Z,14.73
2017-07-25T05:05:27.068Z,14.84
2017-07-25T05:07:54.705Z,14.86
2017-07-25T05:10:22.152Z,14.81
2017-07-25T05:12:49.602Z,14.83
2017-07-25T05:15:17.246Z,14.80
2017-07-25T05:17:44.690Z,14.78
2017-07-25T05:20:12.129Z,14.91
2017-07-25T05:22:39.624Z,14.76
2017-07-25T05:25:07.106Z,15.02
2017-07-25T05:27:34.533Z,15.16
2017-07-25T05:30:01.997Z,15.25
2017-07-25T05:32:29.467Z,15.27
2017-07-25T05:34:56.936Z,15.40
2017-07-25T05:37:24.369Z,15.51
2017-07-25T05:39:51.840Z,15.47
2017-07-25T05:42:19.297Z,15.46
2017-07-25T05:44:46.766Z,15.31
2017-07-25T05:47:14.210Z,15.48
2017-07-25T05:49:41.685Z,15.43
2017-07-25T05:52:09.165Z,15.40
2017-07-25T05:54:36.616Z,15.31
2017-07-25T05:57:04.069Z,16.15
2017-07-25T05:59:31.542Z,16.14
2017-07-25T06:01:58.989Z,15.99
2017-07-25T06:04:26.453Z,16.01
2017-07-25T06:06:53.893Z,15.62
2017-07-25T06:09:21.368Z,15.69
2017-07-25T06:11:48.840Z,15.44
2017-07-25T06:14:16.543Z,15.64
2017-07-25T06:16:43.997Z,15.63
2017-07-25T06:19:11.453Z,15.51
2017-07-25T06:21:39.291Z,15.97
2017-07-25T06:24:06.741Z,16.24
2017-07-25T06:26:34.185Z,16.19
2017-07-25T06:29:01.670Z,16.16
2017-07-25T06:31:29.430Z,15.86
2017-07-25T06:33:56.873Z,16.03
2017-07-25T06:36:24.321Z,16.14
2017-07-25T06:38:51.802Z,16.51
2017-07-25T06:41:19.243Z,15.53
2017-07-25T06:43:46.708Z,15.68
2017-07-25T06:46:14.148Z,15.72
2017-07-25T06:48:41.632Z,15.60
2017-07-25T06:51:09.073Z,15.66
2017-07-25T06:53:36.522Z,15.57
2017-07-25T06:56:03.990Z,15.75
2017-07-25T06:58:31.457Z,15.84
2017-07-25T07:00:58.912Z,15.91
2017-07-25T07:03:26.380Z,15.94
2017-07-25T07:05:53.829Z,15.82
2017-07-25T07:08:21.633Z,15.93
2017-07-25T07:10:49.081Z,15.98
2017-07-25T07:13:16.532Z,15.87
2017-07-25T07:15:44.016Z,16.02
2017-07-25T07:18:11.468Z,16.04
2017-07-25T07:20:38.948Z,16.39
2017-07-25T07:23:06.400Z,16.47
2017-07-25T07:25:33.845Z,16.52
2017-07-25T07:28:01.317Z,16.80
2017-07-25T07:30:28.760Z,17.20
2017-07-25T07:32:56.228Z,16.56
2017-07-25T07:35:23.677Z,16.27
2017-07-25T07:37:51.154Z,16.13
2017-07-25T07:40:18.628Z,16.27
2017-07-25T07:42:46.098Z,16.27
2017-07-25T07:45:13.542Z,16.01
2017-07-25T07:47:41.021Z,15.89
2017-07-25T07:50:08.469Z,15.56
2017-07-25T07:52:35.917Z,15.14
2017-07-25T07:55:03.384Z,14.86
2017-07-25T07:57:30.860Z,14.68
2017-07-25T07:59:58.311Z,14.86
2017-07-25T08:02:25.788Z,14.97
2017-07-25T08:04:53.237Z,15.23
2017-07-25T08:07:20.725Z,15.36
2017-07-25T08:09:48.168Z,15.63
2017-07-25T08:12:15.613Z,15.76
2017-07-25T08:14:43.091Z,15.87
2017-07-25T08:17:10.534Z,16.28
2017-07-25T08:19:37.980Z,16.05
2017-07-25T08:22:05.556Z,16.16
2017-07-25T08:24:33.000Z,16.57
2017-07-25T08:27:00.689Z,16.65
2017-07-25T08:29:28.153Z,16.98
2017-07-25T08:31:55.593Z,16.95
2017-07-25T08:34:23.053Z,16.65
2017-07-25T08:36:50.493Z,16.40
2017-07-25T08:39:17.966Z,16.30
2017-07-25T08:41:45.443Z,16.24
2017-07-25T08:44:12.886Z,16.53
2017-07-25T08:46:40.357Z,16.56
2017-07-25T08:49:07.805Z,16.66
2017-07-25T08:51:35.283Z,16.76
2017-07-25T08:54:02.756Z,16.91
2017-07-25T08:56:30.204Z,17.01
2017-07-25T08:58:57.686Z,17.07
2017-07-25T09:01:25.156Z,17.13
2017-07-25T09:03:52.609Z,17.78
2017-07-25T09:06:20.072Z,18.33
2017-07-25T09:08:47.530Z,18.14
2017-07-25T09:11:15.012Z,17.93
2017-07-25T09:13:42.460Z,17.94
2017-07-25T09:16:09.909Z,18.34
2017-07-25T09:18:37.384Z,18.18
2017-07-25T09:21:04.858Z,18.12
2017-07-25T09:23:32.822Z,18.70
2017-07-25T09:26:00.309Z,18.70
2017-07-25T09:28:27.758Z,19.13
2017-07-25T09:30:55.211Z,18.97
2017-07-25T09:33:22.686Z,19.11
2017-07-25T09:35:50.136Z,19.27
2017-07-25T09:38:17.584Z,19.40
2017-07-25T09:40:45.052Z,19.63
2017-07-25T09:43:12.496Z,19.55
2017-07-25T09:45:39.976Z,18.77
2017-07-25T09:48:07.426Z,18.86
2017-07-25T09:50:34.863Z,18.87
2017-07-25T09:53:02.349Z,18.66
2017-07-25T09:55:29.804Z,19.56
2017-07-25T09:57:57.252Z,18.95
2017-07-25T10:00:24.718Z,19.54
2017-07-25T10:02:52.160Z,19.99
2017-07-25T10:05:19.650Z,20.53
2017-07-25T10:07:47.109Z,20.03
2017-07-25T10:10:14.552Z,19.43
2017-07-25T10:12:42.033Z,19.01
2017-07-25T10:15:09.484Z,18.69
2017-07-25T10:17:36.952Z,18.64
2017-07-25T10:20:04.406Z,18.65
2017-07-25T10:22:32.201Z,18.55
2017-07-25T10:24:59.643Z,19.07
2017-07-25T10:27:27.088Z,19.34
2017-07-25T10:29:54.561Z,19.38
2017-07-25T10:32:22.021Z,19.05
2017-07-25T10:34:49.462Z,19.36
2017-07-25T10:37:16.961Z,19.41
2017-07-25T10:39:44.401Z,19.79
2017-07-25T10:42:11.849Z,19.61
2017-07-25T10:44:39.322Z,19.93
2017-07-25T10:47:06.770Z,19.62
2017-07-25T10:49:34.208Z,19.67
2017-07-25T10:52:01.686Z,19.13
2017-07-25T10:54:29.256Z,19.53
2017-07-25T10:56:56.693Z,19.65
2017-07-25T10:59:24.151Z,19.76
2017-07-25T11:01:51.620Z,19.87
2017-07-25T11:04:19.061Z,19.55
2017-07-25T11:06:46.532Z,19.27
2017-07-25T11:09:13.978Z,19.20
2017-07-25T11:11:41.450Z,19.30
2017-07-25T11:14:08.900Z,19.17
2017-07-25T11:16:36.396Z,19.12
2017-07-25T11:19:03.853Z,19.39
2017-07-25T11:21:31.302Z,20.00
2017-07-25T11:23:58.769Z,20.09
2017-07-25T11:26:26.213Z,19.59
2017-07-25T11:28:53.677Z,19.89
2017-07-25T11:31:21.121Z,19.28
2017-07-25T11:33:48.594Z,19.65
2017-07-25T11:36:16.169Z,19.62
2017-07-25T11:38:43.611Z,19.98
2017-07-25T11:41:11.063Z,19.69
2017-07-25T11:43:38.980Z,19.98
2017-07-25T11:46:06.423Z,19.75
2017-07-25T11:48:33.869Z,19.84
2017-07-25T11:51:01.342Z,20.00
2017-07-25T11:53:28.781Z,20.58
2017-07-25T11:55:56.237Z,19.94
2017-07-25T11:58:23.701Z,20.25
2017-07-25T12:00:51.157Z,20.20
2017-07-25T12:03:18.623Z,20.17
2017-07-25T12:05:46.105Z,19.77
2017-07-25T12:08:13.558Z,19.87
2017-07-25T12:10:41.005Z,19.43
2017-07-25T12:13:08.482Z,19.39
2017-07-25T12:15:35.924Z,19.37
2017-07-25T12:18:03.369Z,19.28
2017-07-25T12:20:30.860Z,19.09
2017-07-25T12:22:58.318Z,18.49
2017-07-25T12:25:25.762Z,16.82
2017-07-25T12:27:53.229Z,17.15
2017-07-25T12:30:20.679Z,17.58
2017-07-25T12:32:48.164Z,18.29
2017-07-25T12:35:15.602Z,18.86
2017-07-25T12:37:43.048Z,18.77
2017-07-25T12:40:10.806Z,19.32
2017-07-25T12:42:38.245Z,19.85
2017-07-25T12:45:05.694Z,21.12
2017-07-25T12:47:33.191Z,22.66
2017-07-25T12:50:00.632Z,20.30
2017-07-25T12:52:28.073Z,20.53
2017-07-25T12:54:55.571Z,20.47
2017-07-25T12:57:23.021Z,20.00
2017-07-25T12:59:50.493Z,19.89
2017-07-25T13:02:29.665Z,19.64
2017-07-25T13:04:57.142Z,19.45
2017-07-25T13:07:24.627Z,19.61
2017-07-25T13:09:52.071Z,21.33
2017-07-25T13:12:19.525Z,22.51
2017-07-25T13:14:46.986Z,23.56
2017-07-25T13:17:14.473Z,24.24
2017-07-25T13:19:41.918Z,23.78
2017-07-25T13:22:09.363Z,23.05
2017-07-25T13:24:36.827Z,22.93
2017-07-25T13:27:04.305Z,22.21
2017-07-25T13:29:31.749Z,21.34
2017-07-25T13:31:59.194Z,21.04
2017-07-25T13:34:26.707Z,20.45
2017-07-25T13:36:54.177Z,19.64
2017-07-25T13:39:21.661Z,19.00
2017-07-25T13:41:49.101Z,19.19
2017-07-25T13:44:16.580Z,21.20
2017-07-25T13:46:44.017Z,21.63
2017-07-25T13:49:11.491Z,21.27
2017-07-25T13:51:38.944Z,21.41
2017-07-25T13:54:06.413Z,22.76
2017-07-25T13:56:33.857Z,22.99
2017-07-25T13:59:01.345Z,22.06
2017-07-25T14:01:28.798Z,21.47
2017-07-25T14:03:56.278Z,22.34
2017-07-25T14:06:23.940Z,23.06
2017-07-25T14:08:51.377Z,23.01
2017-07-25T14:11:18.819Z,22.38
2017-07-25T14:13:46.288Z,22.11
2017-07-25T14:16:13.753Z,21.38
2017-07-25T14:18:41.201Z,21.07
2017-07-25T14:21:08.673Z,20.92
2017-07-25T14:23:36.119Z,21.15
2017-07-25T14:26:03.603Z,22.09
2017-07-25T14:28:31.079Z,21.11
2017-07-25T14:30:58.545Z,21.55
2017-07-25T14:33:25.992Z,21.35
2017-07-25T14:35:53.456Z,20.67
2017-07-25T14:38:20.904Z,20.19
2017-07-25T14:40:48.370Z,20.05
2017-07-25T14:43:15.837Z,20.34
2017-07-25T14:45:43.301Z,20.93
2017-07-25T14:48:10.745Z,20.77
2017-07-25T14:50:38.212Z,20.80
2017-07-25T14:53:05.659Z,21.06
2017-07-25T14:55:33.154Z,21.29
2017-07-25T15:00:37.390Z,21.56
2017-07-25T15:03:06.601Z,22.02
2017-07-25T15:05:34.091Z,21.44
2017-07-25T15:08:01.655Z,22.04
2017-07-25T15:10:29.323Z,21.74
2017-07-25T15:12:57.069Z,21.17
2017-07-25T15:15:25.297Z,21.88
2017-07-25T15:17:52.913Z,22.66
2017-07-25T15:20:21.569Z,22.67
2017-07-25T15:22:49.068Z,23.02
2017-07-25T15:25:16.543Z,22.23
2017-07-25T15:27:44.021Z,23.30
2017-07-25T15:30:11.463Z,22.62
2017-07-25T15:32:38.944Z,21.45
2017-07-25T15:35:06.392Z,22.10
2017-07-25T15:37:33.858Z,23.20
2017-07-25T15:40:01.305Z,23.06
2017-07-25T15:42:28.783Z,23.21
2017-07-25T15:44:56.229Z,23.57
2017-07-25T15:47:23.679Z,23.44
2017-07-25T15:49:51.390Z,23.07
2017-07-25T15:52:18.828Z,23.28
2017-07-25T15:54:46.272Z,23.33
2017-07-25T15:57:13.745Z,23.16
2017-07-25T15:59:41.199Z,24.28
2017-07-25T16:02:08.674Z,22.80
2017-07-25T16:04:36.117Z,22.23
2017-07-25T16:07:03.741Z,22.05
2017-07-25T16:09:31.193Z,21.94
2017-07-25T16:11:58.643Z,20.85
2017-07-25T16:14:26.112Z,21.39
2017-07-25T16:16:53.581Z,20.53
2017-07-25T16:19:21.029Z,20.33
2017-07-25T16:21:48.525Z,19.85
2017-07-25T16:24:15.991Z,19.94
2017-07-25T16:26:43.433Z,19.78
2017-07-25T16:29:10.909Z,19.92
2017-07-25T16:31:38.390Z,19.78
2017-07-25T16:34:05.865Z,20.93
2017-07-25T16:36:33.333Z,20.44
2017-07-25T16:39:00.786Z,20.13
2017-07-25T16:41:28.252Z,19.28
2017-07-25T16:43:55.745Z,18.91
2017-07-25T16:46:23.185Z,18.80
2017-07-25T16:48:50.630Z,18.77
2017-07-25T16:51:18.091Z,18.55
2017-07-25T16:53:45.530Z,18.55
2017-07-25T16:56:14.891Z,18.55
2017-07-25T16:58:44.651Z,18.62
2017-07-25T17:01:14.005Z,18.67
2017-07-25T17:03:43.508Z,18.52
2017-07-25T17:06:11.045Z,18.41
2017-07-25T17:08:38.486Z,18.25
2017-07-25T17:11:05.957Z,18.23
2017-07-25T17:13:33.409Z,18.11
2017-07-25T17:16:00.904Z,18.07
2017-07-25T17:18:28.355Z,17.76
2017-07-25T17:20:55.806Z,17.82
2017-07-25T17:23:23.474Z,17.94
2017-07-25T17:25:50.948Z,17.77
2017-07-25T17:28:18.397Z,17.67
2017-07-25T17:30:45.856Z,17.56
2017-07-25T17:33:13.290Z,17.62
2017-07-25T17:35:40.866Z,17.66
2017-07-25T17:38:08.316Z,17.56
2017-07-25T17:40:36.449Z,17.32
2017-07-25T17:43:04.564Z,17.21
2017-07-25T17:45:32.093Z,17.26
2017-07-25T17:47:59.541Z,17.14
2017-07-25T17:50:26.988Z,17.00
2017-07-25T17:52:54.465Z,16.91
2017-07-25T17:55:21.934Z,16.71
2017-07-25T17:57:50.209Z,16.73
2017-07-25T18:00:18.430Z,16.56
2017-07-25T18:02:46.358Z,16.22
2017-07-25T18:05:13.822Z,15.95
2017-07-25T18:07:41.502Z,15.63
2017-07-25T18:10:08.984Z,15.46
2017-07-25T18:12:36.666Z,15.41
2017-07-25T18:15:04.126Z,15.35
2017-07-25T18:17:31.594Z,15.32
2017-07-25T18:19:59.045Z,15.30
2017-07-25T18:22:26.838Z,15.31
2017-07-25T18:24:54.887Z,15.27
2017-07-25T18:27:22.342Z,15.26
2017-07-25T18:29:49.828Z,15.22
2017-07-25T18:32:17.288Z,15.24
2017-07-25T18:34:45.546Z,15.23
2017-07-25T18:37:14.554Z,15.22
2017-07-25T18:39:42.501Z,15.22
2017-07-25T18:42:10.174Z,15.21
2017-07-25T18:44:37.621Z,15.27
2017-07-25T18:47:06.153Z,15.25
2017-07-25T18:49:34.921Z,15.23
2017-07-25T18:52:02.454Z,15.25
2017-07-25T18:54:29.893Z,15.26
2017-07-25T18:56:57.354Z,15.27
2017-07-25T18:59:26.009Z,15.30
2017-07-25T19:01:53.852Z,15.37
2017-07-25T19:04:21.564Z,15.43
2017-07-25T19:06:49.018Z,15.39
2017-07-25T19:09:16.460Z,15.35
2017-07-25T19:11:44.012Z,15.42
2017-07-25T19:14:11.467Z,15.41
2017-07-25T19:16:38.935Z,15.40
2017-07-25T19:19:07.164Z,15.32
2017-07-25T19:21:35.553Z,15.29
2017-07-25T19:24:04.310Z,15.27
2017-07-25T19:26:31.752Z,15.36
2017-07-25T19:28:59.227Z,15.36
2017-07-25T19:31:27.586Z,15.29
2017-07-25T19:33:55.029Z,15.29
2017-07-25T19:36:22.497Z,15.25
2017-07-25T19:38:49.985Z,15.27
2017-07-25T19:41:17.690Z,15.27
2017-07-25T19:43:46.148Z,15.33
2017-07-25T19:46:13.631Z,15.38
2017-07-25T19:48:41.077Z,15.38
2017-07-25T19:51:08.537Z,15.32
2017-07-25T19:53:36.018Z,15.35
2017-07-25T19:56:03.459Z,15.32
2017-07-25T19:58:30.905Z,15.30
2017-07-25T20:00:58.378Z,15.29
2017-07-25T20:03:26.145Z,15.66
2017-07-25T20:05:53.665Z,15.61
2017-07-25T20:08:21.121Z,15.58
2017-07-25T20:10:48.826Z,15.18
2017-07-25T20:13:16.905Z,15.17
2017-07-25T20:15:44.374Z,15.23
2017-07-25T20:18:12.229Z,15.21
2017-07-25T20:20:39.707Z,15.26
2017-07-25T20:23:07.152Z,15.27
2017-07-25T20:25:34.817Z,15.27
2017-07-25T20:28:02.322Z,15.29
2017-07-25T20:30:29.773Z,15.26
2017-07-25T20:32:57.251Z,15.28
2017-07-25T20:35:26.093Z,15.26
2017-07-25T20:37:53.535Z,15.28
2017-07-25T20:40:20.984Z,15.27
2017-07-25T20:42:48.932Z,15.21
2017-07-25T20:45:16.380Z,15.20
2017-07-25T20:47:43.826Z,15.20
2017-07-25T20:50:11.293Z,15.12
2017-07-25T20:52:38.765Z,15.11
2017-07-25T20:55:06.226Z,15.04
2017-07-25T20:57:33.672Z,14.96
2017-07-25T21:00:01.148Z,14.89
2017-07-25T21:02:28.615Z,14.87
2017-07-25T21:04:56.065Z,14.85
2017-07-25T21:07:23.557Z,14.80
2017-07-25T21:09:51.280Z,14.79
2017-07-25T21:12:18.729Z,14.83
2017-07-25T21:14:46.207Z,14.91
2017-07-25T21:17:13.650Z,14.89
2017-07-25T21:19:41.095Z,14.88
2017-07-25T21:22:08.578Z,14.88
2017-07-25T21:24:36.065Z,14.88
2017-07-25T21:27:03.507Z,14.88
2017-07-25T21:29:30.961Z,14.91
2017-07-25T21:31:58.426Z,14.94
2017-07-25T21:34:25.902Z,14.98
2017-07-25T21:36:53.377Z,14.99
2017-07-25T21:39:20.848Z,15.02
2017-07-25T21:41:48.281Z,15.02
2017-07-25T21:44:15.727Z,15.01
2017-07-25T21:46:43.200Z,15.02
2017-07-25T21:49:10.646Z,15.07
2017-07-25T21:51:38.089Z,15.08
2017-07-25T21:54:05.574Z,15.16
2017-07-25T21:56:33.026Z,15.18
2017-07-25T21:59:00.474Z,15.16
2017-07-25T22:01:48.594Z,15.21
2017-07-25T22:04:27.733Z,15.19
2017-07-25T22:06:55.228Z,15.22
2017-07-25T22:09:22.674Z,15.23
2017-07-25T22:11:50.122Z,15.23
2017-07-25T22:14:17.761Z,15.26
2017-07-25T22:16:45.201Z,15.29
2017-07-25T22:19:12.645Z,15.27
2017-07-25T22:21:40.139Z,15.30
2017-07-25T22:24:07.577Z,15.27
2017-07-25T22:26:35.046Z,15.31
2017-07-25T22:29:02.498Z,15.27
2017-07-25T22:31:29.961Z,15.25
2017-07-25T22:33:57.417Z,15.09
2017-07-25T22:36:24.877Z,14.77
2017-07-25T22:38:52.325Z,14.53
2017-07-25T22:41:19.797Z,14.29
2017-07-25T22:43:47.273Z,14.20
2017-07-25T22:46:14.724Z,14.12
2017-07-25T22:48:42.193Z,14.08
2017-07-25T22:51:09.638Z,14.11
2017-07-25T22:53:37.080Z,14.05
2017-07-25T22:56:04.538Z,14.11
2017-07-25T22:58:31.989Z,14.17
2017-07-25T23:00:59.485Z,14.17
2017-07-25T23:03:26.936Z,14.22
2017-07-25T23:05:54.387Z,14.25
2017-07-25T23:08:21.876Z,14.25
2017-07-25T23:10:49.322Z,14.31
2017-07-25T23:13:16.761Z,14.35
2017-07-25T23:15:44.225Z,14.42
2017-07-25T23:18:11.697Z,14.48
2017-07-25T23:20:39.177Z,14.45
2017-07-25T23:23:06.629Z,14.39
2017-07-25T23:25:34.089Z,14.53
2017-07-25T23:28:01.559Z,14.53
2017-07-25T23:30:29.030Z,14.54
2017-07-25T23:32:56.485Z,14.52
2017-07-25T23:35:23.948Z,14.52
2017-07-25T23:37:51.400Z,14.51
2017-07-25T23:40:18.872Z,14.50
2017-07-25T23:42:46.344Z,14.49
2017-07-25T23:45:13.788Z,14.50
2017-07-25T23:47:41.233Z,14.50
2017-07-25T23:50:08.706Z,14.51
2017-07-25T23:52:36.153Z,14.53
2017-07-25T23:55:03.623Z,14.57
2017-07-25T23:57:31.093Z,14.53
2017-07-25T23:59:58.541Z,14.61
